Time;durP1;ratioP1;P1;durP2;ratioP2;P2;SDS_P1;SDS_P2;PMS_P1;PMS_P2;Temp;Humidity;BMP_temperature;BMP_pressure;BME280_temperature;BME280_humidity;BME280_pressure;Samples;Min_cycle;Max_cycle;Signal;HPM_P1;HPM_P2
2022/12/13 00:01:23;;;;;;;13.60;8.10;;;;;;;-2.77;91.71;97703.96;103382;1288;138376;-70
2022/12/13 00:03:54;;;;;;;18.10;9.10;;;;;;;-2.79;91.71;97707.35;103288;1304;22389;-70
2022/12/13 00:06:23;;;;;;;14.20;8.10;;;;;;;-2.80;91.69;97710.92;103370;1290;138328;-70
2022/12/13 00:08:50;;;;;;;14.80;8.80;;;;;;;-2.84;91.30;97712.98;103612;1305;22537;-70
2022/12/13 00:11:17;;;;;;;16.10;8.10;;;;;;;-2.88;91.25;97713.22;103425;1290;23266;-70
2022/12/13 00:13:46;;;;;;;15.40;8.60;;;;;;;-2.90;91.02;97716.26;103322;1312;138109;-70
2022/12/13 00:16:16;;;;;;;14.40;9.00;;;;;;;-2.94;90.95;97714.41;103366;1296;22629;-70
2022/12/13 00:18:56;;;;;;;16.20;8.30;;;;;;;-2.95;90.78;97718.30;103120;1284;138430;-70
2022/12/13 00:21:29;;;;;;;16.20;8.50;;;;;;;-2.97;91.10;97713.35;103672;1285;24282;-70
2022/12/13 00:23:58;;;;;;;14.00;7.90;;;;;;;-2.97;91.31;97712.97;103469;1304;23495;-70
2022/12/13 00:26:30;;;;;;;12.10;7.10;;;;;;;-2.97;91.08;97717.94;103120;1313;138418;-70
2022/12/13 00:28:59;;;;;;;15.30;7.80;;;;;;;-2.98;90.98;97711.59;103290;1303;24316;-70
2022/12/13 00:31:26;;;;;;;13.80;8.40;;;;;;;-3.00;90.97;97717.42;103185;1305;138104;-69
2022/12/13 00:33:53;;;;;;;12.50;7.70;;;;;;;-3.00;90.85;97717.66;103887;1291;23378;-70
2022/12/13 00:36:20;;;;;;;14.90;8.20;;;;;;;-3.02;90.78;97718.91;103238;1312;138781;-70
2022/12/13 00:38:59;;;;;;;14.90;7.30;;;;;;;-3.03;90.87;97723.88;104164;1298;24298;-70
2022/12/13 00:41:36;;;;;;;14.60;8.00;;;;;;;-3.04;90.62;97731.81;103133;1312;22478;-69
2022/12/13 00:44:03;;;;;;;14.60;8.00;;;;;;;-3.07;90.57;97732.98;103027;1288;139077;-70
2022/12/13 00:46:31;;;;;;;17.40;8.90;;;;;;;-3.08;90.82;97731.84;103200;1288;22610;-70
2022/12/13 00:49:00;;;;;;;13.30;8.10;;;;;;;-3.06;90.85;97737.27;103072;1295;138247;-70
2022/12/13 00:51:29;;;;;;;16.30;8.10;;;;;;;-3.05;90.94;97741.22;103908;1305;22490;-70
2022/12/13 00:53:56;;;;;;;20.50;8.80;;;;;;;-3.04;90.91;97743.50;103358;1288;22486;-70
2022/12/13 00:56:25;;;;;;;11.80;6.90;;;;;;;-3.03;90.94;97742.72;103145;1303;138161;-69
2022/12/13 00:58:54;;;;;;;17.00;8.50;;;;;;;-3.04;90.88;97746.52;103563;1288;24232;-70
2022/12/13 01:01:24;;;;;;;12.80;7.90;;;;;;;-3.04;91.07;97750.98;102968;1288;138506;-70
2022/12/13 01:03:56;;;;;;;15.60;8.40;;;;;;;-3.02;91.00;97753.25;103058;1311;22688;-70
2022/12/13 01:06:28;;;;;;;16.80;9.00;;;;;;;-3.02;90.94;97750.24;103163;1291;138194;-70
2022/12/13 01:08:55;;;;;;;13.70;7.50;;;;;;;-3.03;90.89;97749.58;103289;1312;22603;-70
2022/12/13 01:11:22;;;;;;;13.40;7.90;;;;;;;-3.03;90.99;97751.52;103076;1289;24315;-70
2022/12/13 01:13:49;;;;;;;16.20;9.30;;;;;;;-3.03;90.77;97746.75;103055;1288;138644;-70
2022/12/13 01:16:17;;;;;;;14.30;8.80;;;;;;;-3.04;90.82;97748.79;103147;1289;22465;-70
2022/12/13 01:18:44;;;;;;;12.40;8.10;;;;;;;-3.06;90.79;97749.33;102984;1312;138297;-70
2022/12/13 01:21:14;;;;;;;16.60;9.80;;;;;;;-3.07;90.70;97747.20;103105;1287;22544;-70
2022/12/13 01:23:42;;;;;;;16.30;8.90;;;;;;;-3.08;90.65;97747.34;103047;1312;22749;-70
2022/12/13 01:26:12;;;;;;;14.60;8.90;;;;;;;-3.10;90.62;97749.98;102960;1311;138141;-70
2022/12/13 01:28:39;;;;;;;;;;;;;;;-3.11;90.80;97750.13;103236;1290;22952;-70
2022/12/13 01:31:08;;;;;;;;;;;;;;;-3.12;90.57;97754.98;103153;1298;124405;-70
2022/12/13 01:33:35;;;;;;;;;;;;;;;-3.13;90.52;97755.57;103089;1313;24250;-69
2022/12/13 01:36:04;;;;;;;;;;;;;;;-3.15;90.65;97759.06;103243;1289;22447;-69
2022/12/13 01:38:31;;;;;;;;;;;;;;;-3.16;90.45;97757.65;103035;1303;124371;-70
2022/12/13 01:40:57;;;;;;;;;;;;;;;-3.16;90.82;97760.14;103037;1309;22681;-70
2022/12/13 01:43:25;;;;;;;;;;;;;;;-3.16;90.76;97761.00;103054;1290;124538;-70
2022/12/13 01:45:52;;;;;;;;;;;;;;;-3.17;90.83;97763.08;103154;1296;22533;-70
2022/12/13 01:48:25;;;;;;;;;;;;;;;-3.18;90.71;97762.24;103128;1288;23231;-69
2022/12/13 01:50:54;;;;;;;;;;;;;;;-3.22;90.64;97768.63;103732;1306;22733;-70
2022/12/13 01:53:23;;;;;;;;;;;;;;;-3.25;90.63;97768.53;103134;1304;22453;-70
2022/12/13 01:55:53;;;;;;;;;;;;;;;-3.25;90.80;97772.70;103035;1312;125048;-70
2022/12/13 01:58:23;;;;;;;;;;;;;;;-3.26;90.69;97778.95;103238;1311;23186;-70
2022/12/13 02:00:50;;;;;;;;;;;;;;;-3.27;90.90;97774.81;102913;1304;124692;-70
2022/12/13 02:03:19;;;;;;;;;;;;;;;-3.28;90.66;97778.80;103094;1312;22456;-70
2022/12/13 02:05:52;;;;;;;;;;;;;;;-3.29;90.64;97776.69;103071;1288;22932;-69
2022/12/13 02:08:19;;;;;;;;;;;;;;;-3.30;90.57;97778.91;102976;1287;124375;-70
2022/12/13 02:10:46;;;;;;;;;;;;;;;-3.33;90.51;97782.41;103461;1288;25433;-70
2022/12/13 02:13:13;;;;;;;;;;;;;;;-3.35;90.37;97785.68;103022;1295;124517;-70
2022/12/13 02:15:58;;;;;;;;;;;;;;;-3.37;90.42;97789.16;103092;1313;23541;-70
2022/12/13 02:18:33;;;;;;;;;;;;;;;-3.40;90.43;97791.60;103306;1305;23895;-70
2022/12/13 02:21:06;;;;;;;;;;;;;;;-3.42;90.51;97793.52;103087;1297;22494;-70
2022/12/13 02:23:52;;;;;;;;;;;;;;;-3.45;90.55;97793.01;103068;1312;24387;-69
2022/12/13 02:26:37;;;;;;;;;;;;;;;-3.46;90.76;97794.39;103015;1288;124431;-71
2022/12/13 02:29:13;;;;;;;;;;;;;;;-3.46;91.04;97795.22;103044;1296;25371;-69
2022/12/13 02:31:53;;;;;;;;;;;;;;;-3.48;90.69;97796.86;102985;1312;125309;-70
2022/12/13 02:34:23;;;;;;;;;;;;;;;-3.50;90.32;97796.20;103096;1313;22456;-70
2022/12/13 02:37:10;;;;;;;;;;;;;;;-3.53;90.27;97790.52;103106;1296;124871;-70
2022/12/13 02:39:42;;;;;;;;;;;;;;;-3.54;90.23;97794.02;103060;1313;23904;-70
2022/12/13 02:42:15;;;;;;;;;;;;;;;-3.57;90.09;97793.63;102831;1298;24427;-70
2022/12/13 02:44:46;;;;;;;;;;;;;;;-3.60;90.34;97802.81;103072;1305;124769;-69
2022/12/13 02:47:16;;;;;;;;;;;;;;;-3.60;90.13;97801.29;103302;1307;22538;-70
2022/12/13 02:49:45;;;;;;;;;;;;;;;-3.62;89.85;97800.20;102970;1312;124432;-70
2022/12/13 02:52:14;;;;;;;;;;;;;;;-3.65;89.60;97800.01;105557;1305;22754;-70
2022/12/13 02:54:40;;;;;;;;;;;;;;;-3.66;89.57;97798.89;103021;1289;124701;-70
2022/12/13 02:57:26;;;;;;;;;;;;;;;-3.68;89.75;97797.69;103201;1304;22594;-69
2022/12/13 02:59:53;;;;;;;;;;;;;;;-3.69;89.73;97802.91;103212;1295;22571;-69
2022/12/13 03:02:29;;;;;;;;;;;;;;;-3.70;89.41;97801.29;103313;1285;124299;-69
2022/12/13 03:07:54;;;;;;;;;;;;;;;-3.75;89.18;97802.09;103061;1312;124594;-70
2022/12/13 03:10:27;;;;;;;;;;;;;;;-3.78;89.06;97802.91;103028;1312;22454;-70
2022/12/13 03:16:04;;;;;;;;;;;;;;;-3.84;88.82;97810.83;103143;1306;22584;-70
2022/12/13 03:18:32;;;;;;;;;;;;;;;-3.86;89.17;97806.04;103097;1311;22921;-70
2022/12/13 03:21:00;;;;;;;;;;;;;;;-3.87;89.62;97804.92;102995;1288;125030;-70
2022/12/13 03:23:27;;;;;;;;;;;;;;;-3.88;89.60;97800.48;103044;1304;24444;-69
2022/12/13 03:25:55;;;;;;;;;;;;;;;-3.90;89.43;97798.41;103065;1285;124550;-69
2022/12/13 03:28:23;;;;;;;;;;;;;;;-3.91;89.60;97801.33;103313;1311;22467;-69
2022/12/13 03:30:49;;;;;;;;;;;;;;;-3.92;89.72;97805.45;103025;1287;124963;-70
2022/12/13 03:33:16;;;;;;;;;;;;;;;-3.93;89.46;97807.75;103074;1311;24395;-69
2022/12/13 03:35:43;;;;;;;;;;;;;;;-3.94;89.25;97809.15;103044;1309;22520;-69
2022/12/13 03:38:11;;;;;;;;;;;;;;;-3.96;89.36;97808.63;103001;1286;125242;-69
2022/12/13 03:40:38;;;;;;;;;;;;;;;-3.96;89.67;97809.92;103074;1304;24350;-69
2022/12/13 03:43:05;;;;;;;;;;;;;;;-3.97;89.13;97815.46;103045;1282;124693;-69
2022/12/13 03:45:32;;;;;;;;;;;;;;;-4.00;88.91;97815.46;103145;1288;23933;-69
2022/12/13 03:47:58;;;;;;;;;;;;;;;-4.01;89.42;97811.63;103154;1311;24443;-69
2022/12/13 03:50:25;;;;;;;;;;;;;;;-4.02;88.98;97813.64;103038;1298;124432;-70
2022/12/13 03:53:02;;;;;;;;;;;;;;;-4.02;89.17;97816.01;103374;1297;22566;-69
2022/12/13 03:55:29;;;;;;;;;;;;;;;-4.03;88.78;97814.35;102912;1308;124473;-69
2022/12/13 03:57:56;;;;;;;;;;;;;;;-4.04;88.73;97815.73;103160;1291;25298;-69
2022/12/13 04:00:22;;;;;;;;;;;;;;;-4.05;89.14;97809.96;103225;1312;22853;-69
2022/12/13 04:02:49;;;;;;;;;;;;;;;-4.05;89.02;97812.46;103319;1303;124379;-70
2022/12/13 04:05:16;;;;;;;;;;;;;;;-4.05;89.03;97816.88;103368;1290;25276;-69
2022/12/13 04:07:43;;;;;;;;;;;;;;;-4.05;88.87;97820.96;103182;1287;124587;-70
2022/12/13 04:10:10;;;;;;;;;;;;;;;-4.05;88.85;97821.66;103249;1289;22449;-69
2022/12/13 04:15:23;;;;;;;;;;;;;;;-4.06;89.26;97827.58;103423;1293;25348;-69
2022/12/13 04:17:50;;;;;;;;;;;;;;;-4.06;89.38;97826.19;103242;1280;22675;-69
2022/12/13 04:20:17;;;;;;;;;;;;;;;-4.05;89.46;97830.55;103810;1288;124711;-70
2022/12/13 04:22:43;;;;;;;;;;;;;;;-4.06;89.72;97829.41;103930;1290;24253;-70
2022/12/13 04:25:11;;;;;;;;;;;;;;;-4.08;89.61;97832.98;104032;1289;124892;-70
2022/12/13 04:27:37;;;;;;;;;;;;;;;-4.09;89.39;97834.23;103426;1310;25552;-69
2022/12/13 04:30:05;;;;;;;;;;;;;;;-4.08;89.72;97834.92;104192;1281;22642;-70
2022/12/13 04:32:31;;;;;;;;;;;;;;;-4.08;89.72;97835.39;103464;1289;125304;-69
2022/12/13 04:34:58;;;;;;;;;;;;;;;-4.08;90.01;97837.85;104047;1288;24338;-69
2022/12/13 04:37:25;;;;;;;;;;;;;;;-4.06;90.16;97839.67;103747;1289;125659;-70
2022/12/13 04:39:52;;;;;;;;;;;;;;;-4.06;90.12;97844.36;104311;1288;22705;-70
2022/12/13 04:42:18;;;;;;;;;;;;;;;-4.04;89.96;97845.09;103190;1305;22466;-70
2022/12/13 04:44:48;;;;;;;;;;;;;;;-4.03;89.96;97847.48;104256;1288;124478;-69
2022/12/13 04:47:15;;;;;;;;;;;;;;;-4.02;90.52;97846.36;104535;1288;25223;-69
2022/12/13 04:49:44;;;;;;;;;;;;;;;-4.02;90.47;97844.53;103575;1303;124331;-69
2022/12/13 04:52:11;;;;;;;;;;;;;;;-4.01;90.31;97845.62;103209;1289;22461;-69
2022/12/13 04:54:38;;;;;;;;;;;;;;;-4.00;90.72;97842.53;103563;1298;24325;-69
2022/12/13 04:57:06;;;;;;;;;;;;;;;-3.98;90.78;97845.90;103907;1288;124425;-69
2022/12/13 04:59:33;;;;;;;;;;;;;;;-3.98;90.51;97849.27;103674;1281;22512;-69
2022/12/13 05:01:59;;;;;;;;;;;;;;;-3.98;90.54;97846.95;103498;1288;124786;-69
2022/12/13 05:04:26;;;;;;;;;;;;;;;-3.97;90.32;97850.61;104181;1311;22506;-70
2022/12/13 05:06:56;;;;;;;;;;;;;;;-3.96;90.68;97851.88;103225;1294;124594;-69
2022/12/13 05:09:23;;;;;;;;;;;;;;;-3.96;90.43;97852.23;103533;1287;22494;-69
2022/12/13 05:11:51;;;;;;;;;;;;;;;-3.96;90.60;97855.40;103711;1289;24343;-69
2022/12/13 05:14:17;;;;;;;;;;;;;;;-3.95;90.59;97852.50;103308;1297;124646;-69
2022/12/13 05:16:44;;;;;;;;;;;;;;;-3.95;90.89;97854.47;103184;1290;24233;-69
2022/12/13 05:19:11;;;;;;;;;;;;;;;-3.95;90.53;97855.41;103169;1280;126212;-69
2022/12/13 05:21:38;;;;;;;;;;;;;;;-3.93;91.16;97854.03;103243;1290;25287;-69
2022/12/13 05:24:05;;;;;;;;;;;;;;;-3.92;90.93;97853.56;103303;1290;25238;-69
2022/12/13 05:26:32;;;;;;;;;;;;;;;-3.91;90.92;97855.20;103233;1297;124412;-69
2022/12/13 05:28:59;;;;;;;;;;;;;;;-3.91;90.79;97856.83;103264;1303;23545;-69
2022/12/13 05:31:26;;;;;;;;;;;;;;;-3.92;90.55;97857.25;104024;1282;125981;-69
2022/12/13 05:33:53;;;;;;;;;;;;;;;-3.93;90.62;97860.08;102261;1285;1310331;-69
2022/12/13 05:36:24;;;;;;;;;;;;;;;-3.94;90.67;97859.25;103185;1312;22461;-69
2022/12/13 05:38:51;;;;;;;;;;;;;;;-3.95;90.86;97857.27;103430;1280;124477;-69
2022/12/13 05:41:19;;;;;;;;;;;;;;;-3.95;90.71;97856.62;103384;1285;22467;-69
2022/12/13 05:43:46;;;;;;;;;;;;;;;-3.96;91.12;97860.05;103257;1312;124389;-69
2022/12/13 05:46:13;;;;;;;;;;;;;;;-3.98;91.13;97857.19;103515;1295;22452;-69
2022/12/13 05:48:41;;;;;;;;;;;;;;;-3.98;90.86;97861.34;103319;1289;22501;-69
2022/12/13 05:51:08;;;;;;;;;;;;;;;-3.98;91.25;97863.51;104079;1288;124431;-69
2022/12/13 05:53:35;;;;;;;;;;;;;;;-3.99;91.37;97867.27;103727;1295;22588;-70
2022/12/13 05:56:02;;;;;;;;;;;;;;;-4.00;91.12;97865.64;103211;1285;124444;-69
2022/12/13 05:58:29;;;;;;;;;;;;;;;-4.02;91.01;97864.89;103431;1295;25365;-69
2022/12/13 06:01:03;;;;;;;;;;;;;;;-4.02;91.47;97869.19;103111;1301;125230;-69
2022/12/13 06:03:29;;;;;;;;;;;;;;;-4.05;91.32;97869.79;103450;1280;23740;-69
2022/12/13 06:05:59;;;;;;;;;;;;;;;-4.04;91.41;97869.43;103252;1307;22505;-69
2022/12/13 06:08:25;;;;;;;;;;;;;;;-4.05;91.56;97874.61;103473;1289;124869;-69
2022/12/13 06:10:53;;;;;;;;;;;;;;;-4.05;91.57;97872.85;103347;1287;22515;-69
2022/12/13 06:13:20;;;;;;;;;;;;;;;-4.05;91.65;97872.36;103360;1294;124568;-69
2022/12/13 06:15:46;;;;;;;;;;;;;;;-4.05;91.56;97868.44;103338;1296;24267;-69
2022/12/13 06:18:14;;;;;;;;;;;;;;;-4.06;91.78;97873.14;103500;1288;22484;-69
2022/12/13 06:20:40;;;;;;;;;;;;;;;-4.08;91.99;97877.67;103141;1288;124315;-69
2022/12/13 06:23:07;;;;;;;;;;;;;;;-4.11;92.07;97883.42;103270;1290;25406;-68
2022/12/13 06:25:35;;;;;;;;;;;;;;;-4.13;92.00;97886.02;103251;1288;125150;-69
2022/12/13 06:28:02;;;;;;;;;;;;;;;-4.16;91.85;97892.46;103759;1311;22735;-69
2022/12/13 06:30:29;;;;;;;;;;;;;;;-4.17;92.13;97895.05;103243;1313;22496;-69
2022/12/13 06:32:56;;;;;;;;;;;;;;;-4.19;91.66;97895.09;103165;1288;124599;-69
2022/12/13 06:35:23;;;;;;;;;;;;;;;-4.21;91.72;97896.31;103377;1288;24193;-69
2022/12/13 06:37:52;;;;;;;;;;;;;;;-4.21;91.60;97901.56;103774;1288;125017;-69
2022/12/13 06:40:19;;;;;;;;;;;;;;;-4.23;91.67;97902.06;103626;1287;22753;-70
2022/12/13 06:42:46;;;;;;;;;;;;;;;-4.23;91.46;97907.05;104442;1288;24586;-70
2022/12/13 06:45:13;;;;;;;;;;;;;;;-4.23;91.52;97905.98;103529;1295;124275;-69
2022/12/13 06:47:39;;;;;;;;;;;;;;;-4.23;91.46;97906.67;103268;1304;24281;-69
2022/12/13 06:50:06;;;;;;;;;;;;;;;-4.21;91.17;97909.48;103682;1305;124541;-69
2022/12/13 06:52:33;;;;;;;;;;;;;;;-4.17;91.44;97909.51;103307;1297;25218;-69
2022/12/13 06:55:00;;;;;;;;;;;;;;;-4.15;91.70;97914.77;103150;1297;124803;-69
2022/12/13 06:57:26;;;;;;;;;;;;;;;-4.14;91.29;97918.91;103521;1302;25317;-69
2022/12/13 06:59:53;;;;;;;;;;;;;;;-4.11;91.29;97923.00;103416;1304;22473;-69
2022/12/13 07:02:20;;;;;;;;;;;;;;;-4.08;91.67;97923.50;103412;1306;124420;-69
2022/12/13 07:04:47;;;;;;;;;;;;;;;-4.05;91.06;97922.48;103420;1312;24340;-69
2022/12/13 07:07:14;;;;;;;;;;;;;;;-4.00;91.05;97927.66;104221;1290;124701;-69
2022/12/13 07:09:41;;;;;;;;;;;;;;;-3.96;91.14;97931.63;103860;1295;22885;-69
2022/12/13 07:12:08;;;;;;;;;;;;;;;-3.86;92.39;97934.15;103492;1308;22593;-70
2022/12/13 07:14:36;;;;;;;;;;;;;;;-3.59;94.10;97938.66;103468;1289;124498;-71
2022/12/13 07:17:03;;;;;;;;;;;;;;;-3.38;92.64;97942.06;104091;1288;23261;-69
2022/12/13 07:19:30;;;;;;;;;;;;;;;-3.32;90.65;97945.77;104575;1287;124571;-70
2022/12/13 07:21:57;;;;;;;;;;;;;;;-3.32;89.42;97951.48;105512;1281;22474;-69
2022/12/13 07:24:24;;;;;;;;;;;;;;;-3.33;89.26;97953.38;103355;1297;22516;-70
2022/12/13 07:26:50;;;;;;;;;;;;;;;-3.33;89.12;97954.37;103385;1312;124863;-70
2022/12/13 07:29:17;;;;;;;;;;;;;;;-3.34;88.83;97952.38;104140;1311;22457;-70
2022/12/13 07:31:44;;;;;;;;;;;;;;;-3.36;88.68;97956.17;103543;1295;124409;-70
2022/12/13 07:34:10;;;;;;;;;;;;;;;-3.35;89.57;97955.34;104409;1292;22871;-69
2022/12/13 07:36:37;;;;;;;;;;;;;;;-3.31;89.19;97957.36;104945;1281;23160;-70
2022/12/13 07:39:04;;;;;;;;;;;;;;;-3.29;88.69;97958.66;103912;1296;124815;-69
2022/12/13 07:41:31;;;;;;;;;;;;;;;-3.31;88.51;97963.02;103316;1311;23256;-69
2022/12/13 07:44:00;;;;;;;;;;;;;;;-3.31;88.43;97966.10;103746;1290;124894;-70
2022/12/13 07:46:26;;;;;;;;;;;;;;;-3.29;88.69;97962.52;104429;1290;22524;-69
2022/12/13 07:48:53;;;;;;;;;;;;;;;-3.27;88.22;97962.81;104621;1282;23890;-70
2022/12/13 07:51:20;;;;;;;;;;;;;;;-3.26;88.30;97965.86;104564;1285;22447;-70
2022/12/13 07:53:46;;;;;;;;;;;;;;;-3.24;88.21;97966.86;103777;1280;23471;-70
2022/12/13 07:56:13;;;;;;;;;;;;;;;-3.21;87.59;97968.46;104278;1288;125011;-70
2022/12/13 07:58:41;;;;;;;;;;;;;;;-3.22;87.58;97966.06;103599;1288;22473;-70
2022/12/13 08:01:09;;;;;;;;;;;;;;;-3.22;87.05;97968.73;103848;1285;124525;-70
2022/12/13 08:03:35;;;;;;;;;;;;;;;-3.25;87.07;97971.10;104612;1297;22461;-69
2022/12/13 08:06:06;;;;;;;;;;;;;;;-3.23;87.09;97973.05;103364;1287;24231;-69
2022/12/13 08:08:34;;;;;;;;;;;;;;;-3.20;87.08;97974.83;104228;1305;124441;-69
2022/12/13 08:11:02;;;;;;;;;;;;;;;-3.14;86.97;97972.70;104025;1298;22576;-69
2022/12/13 08:13:28;;;;;;;;;;;;;;;-3.10;86.41;97969.77;103619;1301;125041;-69
2022/12/13 08:15:59;;;;;;;;;;;;;;;-3.05;86.32;97972.65;103528;1288;22483;-70
2022/12/13 08:18:27;;;;;;;;;;;;;;;-3.00;86.01;97972.50;103480;1297;22491;-70
2022/12/13 08:21:01;;;;;;;;;;;;;;;-2.96;85.90;97967.42;103697;1288;124500;-70
2022/12/13 08:23:28;;;;;;;;;;;;;;;-2.92;85.56;97971.34;103986;1306;22479;-69
2022/12/13 08:25:55;;;;;;;;;;;;;;;-2.92;84.55;97973.64;103203;1297;125460;-69
2022/12/13 08:28:23;;;;;;;;;;;;;;;-2.92;84.47;97976.94;103223;1312;25177;-69
2022/12/13 08:30:52;;;;;;;;;;;;;;;-2.94;84.35;97979.05;104046;1285;24027;-69
2022/12/13 08:33:19;;;;;;;;;;;;;;;-2.91;84.76;97983.73;103729;1298;124182;-69
2022/12/13 08:35:46;;;;;;;;;;;;;;;-2.85;84.85;97986.98;104572;1287;24284;-69
2022/12/13 08:38:13;;;;;;;;;;;;;;;-2.80;84.62;97984.07;103275;1298;124365;-69
2022/12/13 08:40:40;;;;;;;;;;;;;;;-2.74;84.59;97986.65;103470;1288;22484;-70
2022/12/13 08:43:07;;;;;;;;;;;;;;;-2.69;84.29;97985.16;104001;1288;124664;-70
2022/12/13 08:45:34;;;;;;;;;;;;;;;-2.67;83.58;97985.99;103084;1312;24262;-70
2022/12/13 08:48:01;;;;;;;;;;;;;;;-2.63;84.22;97991.23;103184;1295;24273;-69
2022/12/13 08:50:28;;;;;;;;;;;;;;;-2.55;84.17;97994.64;103071;1311;125185;-69
2022/12/13 08:52:55;;;;;;;;;;;;;;;-2.52;83.64;97990.65;103128;1313;22484;-69
2022/12/13 08:55:22;;;;;;;;;;;;;;;-2.44;84.25;97987.76;103045;1294;124550;-69
2022/12/13 08:57:48;;;;;;;;;;;;;;;-2.39;83.62;97985.70;103117;1288;22755;-70
2022/12/13 09:00:17;;;;;;;;;;;;;;;-2.36;83.09;97989.85;103297;1300;26487;-69
2022/12/13 09:02:43;;;;;;;;;;;;;;;-2.33;82.85;97986.84;103272;1287;125096;-69
2022/12/13 09:05:11;;;;;;;;;;;;;;;-2.29;83.37;97990.09;103758;1288;23375;-69
2022/12/13 09:07:39;;;;;;;;;;;;;;;-2.20;83.68;97991.87;103134;1296;124941;-70
2022/12/13 09:10:07;;;;;;;;;;;;;;;-2.14;83.17;97991.60;103383;1291;22512;-69
2022/12/13 09:12:34;;;;;;;;;;;;;;;-2.10;82.66;97990.05;103634;1313;24235;-69
2022/12/13 09:15:01;;;;;;;;;;;;;;;-2.06;82.44;97985.88;103277;1295;125064;-69
2022/12/13 09:17:29;;;;;;;;;;;;;;;-2.03;82.40;97983.55;104441;1301;22547;-70
2022/12/13 09:19:56;;;;;;;;;;;;;;;-2.01;82.02;97983.81;104210;1295;124374;-69
2022/12/13 09:22:23;;;;;;;;;;;;;;;-1.99;81.99;97985.74;103312;1312;22468;-69
2022/12/13 09:24:50;;;;;;;;;;;;;;;-1.98;81.73;97983.67;103607;1291;23279;-69
2022/12/13 09:27:17;;;;;;;;;;;;;;;-1.91;82.49;97977.79;104072;1304;125075;-70
2022/12/13 09:29:46;;;;;;;;;;;;;;;-1.85;81.78;97980.58;103515;1288;23644;-69
2022/12/13 09:32:13;;;;;;;;;;;;;;;-1.83;81.33;97977.90;103335;1288;124354;-69
2022/12/13 09:34:40;;;;;;;;;;;;;;;-1.82;81.63;97979.02;103308;1298;22456;-69
2022/12/13 09:37:07;;;;;;;;;;;;;;;-1.80;81.45;97982.27;103472;1288;125094;-70
2022/12/13 09:39:34;;;;;;;;;;;;;;;-1.72;81.40;97982.90;103451;1298;23269;-69
2022/12/13 09:42:01;;;;;;;;;;;;;;;-1.69;80.85;97987.46;103204;1312;25234;-69
2022/12/13 09:44:33;;;;;;;;;;;;;;;-1.69;80.14;97991.58;103222;1297;124543;-69
2022/12/13 09:47:02;;;;;;;;;;;;;;;-1.72;79.59;97984.98;103219;1312;22494;-69
2022/12/13 09:49:31;;;;;;;;;;;;;;;-1.76;79.26;97988.66;103351;1298;125572;-69
2022/12/13 09:52:00;;;;;;;;;;;;;;;-1.75;80.00;97991.59;103700;1294;22936;-69
2022/12/13 09:54:28;;;;;;;;;;;;;;;-1.75;79.41;97989.23;103380;1313;24394;-69
2022/12/13 09:56:55;;;;;;;;;;;;;;;-1.76;78.86;97989.16;103598;1313;124504;-69
2022/12/13 09:59:40;;;;;;;;;;;;;;;-1.77;79.10;97990.39;103464;1294;23174;-69
2022/12/13 10:02:13;;;;;;;;;;;;;;;-1.75;78.66;97992.79;103688;1298;125197;-70
2022/12/13 10:04:40;;;;;;;;;;;;;;;-1.67;79.42;97992.27;103811;1298;23162;-69
2022/12/13 10:07:16;;;;;;;;;;;;;;;-1.62;78.63;97991.16;103221;1295;124651;-69
2022/12/13 10:09:43;;;;;;;;;;;;;;;-1.65;78.03;97990.70;103615;1295;22496;-69
2022/12/13 10:12:13;;;;;;;;;;;;;;;-1.70;77.46;97988.27;103498;1291;23222;-69
2022/12/13 10:14:43;;;;;;;;;;;;;;;-1.75;77.90;97988.73;103491;1304;124399;-70
2022/12/13 10:17:13;;;;;;;;;;;;;;;-1.78;78.30;97987.84;103541;1301;22572;-69
2022/12/13 10:19:43;;;;;;;;;;;;;;;-1.78;78.61;97983.70;103630;1289;125021;-69
2022/12/13 10:22:12;;;;;;;;;;;;;;;-1.75;78.41;97981.83;103614;1294;22477;-69
2022/12/13 10:24:47;;;;;;;;;;;;;;;-1.73;77.92;97981.33;103761;1291;22528;-69
2022/12/13 10:27:16;;;;;;;;;;;;;;;-1.76;77.78;97976.30;103246;1287;124173;-69
2022/12/13 10:30:02;;;;;;;;;;;;;;;-1.77;77.81;97975.63;103847;1297;22518;-69
2022/12/13 10:32:29;;;;;;;;;;;;;;;-1.81;78.04;97975.80;103824;1290;124911;-69
2022/12/13 10:34:58;;;;;;;;;;;;;;;-1.79;77.80;97974.02;103602;1304;23041;-69
2022/12/13 10:37:29;;;;;;;;;;;;;;;-1.77;77.03;97975.91;103670;1313;125049;-70
2022/12/13 10:39:57;;;;;;;;;;;;;;;-1.77;76.49;97979.13;103601;1312;22511;-69
2022/12/13 10:42:24;;;;;;;;;;;;;;;-1.79;75.85;97976.75;103276;1304;22531;-69
2022/12/13 10:45:14;;;;;;;;;;;;;;;-1.82;74.77;97977.13;103103;1302;124411;-69
2022/12/13 10:47:42;;;;;;;;;;;;;;;-1.81;75.53;97976.99;103093;1291;22478;-69
2022/12/13 10:50:20;;;;;;;;;;;;;;;-1.76;75.81;97976.19;103209;1312;124377;-69
2022/12/13 10:52:47;;;;;;;;;;;;;;;-1.69;76.20;97978.61;103408;1313;23382;-69
2022/12/13 10:55:31;;;;;;;;;;;;;;;-1.64;75.97;97974.59;103487;1313;124157;-69
2022/12/13 10:57:59;;;;;;;;;;;;;;;-1.56;76.02;97976.31;103313;1302;22593;-69
2022/12/13 11:00:39;;;;;;;;;;;;;;;-1.52;75.86;97976.92;104463;1295;22595;-70
2022/12/13 11:03:07;;;;;;;;;;;;;;;-1.50;75.65;97981.23;103911;1311;124302;-69
2022/12/13 11:05:36;;;;;;;;;;;;;;;-1.55;74.82;97978.23;105719;1302;22435;-70
2022/12/13 11:08:20;;;;;;;;;;;;;;;-1.65;74.82;97981.30;105749;1303;124810;-69
2022/12/13 11:11:13;;;;;;;;;;;;;;;-1.68;75.16;97983.05;104440;1291;22454;-70
2022/12/13 11:13:42;;;;;;;;;;;;;;;-1.66;75.48;97979.48;103501;1305;124647;-70
2022/12/13 11:16:28;;;;;;;;;;;;;;;-1.61;75.77;97977.64;103379;1289;24343;-69
2022/12/13 11:18:57;;;;;;;;;;;;;;;-1.53;75.53;97973.00;104516;1289;22557;-70
2022/12/13 11:21:27;;;;;;;;;;;;;;;-1.47;75.54;97971.73;103251;1304;123529;-69
2022/12/13 11:23:56;;;;;;;;;;;;;;;-1.39;75.27;97968.96;103438;1303;23199;-70
2022/12/13 11:26:24;;;;;;;;;;;;;;;-1.28;74.74;97965.50;103994;1290;124142;-70
2022/12/13 11:28:58;;;;;;;;;;;;;;;-1.22;75.18;97965.61;103838;1298;22460;-69
2022/12/13 11:31:27;;;;;;;;;;;;;;;-1.14;74.57;97963.46;103445;1296;124574;-69
2022/12/13 11:33:54;;;;;;;;;;;;;;;-1.13;74.10;97957.10;103491;1304;22496;-69
2022/12/13 11:36:36;;;;;;;;;;;;;;;-1.12;74.03;97956.95;103474;1304;22493;-69
2022/12/13 11:39:19;;;;;;;;;;;;;;;-1.17;73.97;97958.91;103817;1312;123750;-70
2022/12/13 11:41:52;;;;;;;;;;;;;;;-1.24;73.61;97960.55;104178;1303;22988;-70
2022/12/13 11:44:22;;;;;;;;;;;;;;;-1.35;73.30;97961.13;103128;1313;123883;-69
2022/12/13 11:46:51;;;;;;;;;;;;;;;-1.47;73.19;97959.95;103346;1300;23145;-69
2022/12/13 11:49:24;;;;;;;;;;;;;;;-1.60;73.31;97962.91;103640;1288;123952;-69
2022/12/13 11:51:55;;;;;;;;;;;;;;;-1.75;73.50;97966.66;103366;1310;22505;-69
2022/12/13 11:54:25;;;;;;;;;;;;;;;-1.89;73.40;97967.17;103249;1311;22666;-70
2022/12/13 11:56:53;;;;;;;;;;;;;;;-2.00;73.85;97971.88;103554;1293;123845;-70
2022/12/13 11:59:30;;;;;;;;;;;;;;;-2.12;74.17;97972.66;103202;1304;25198;-70
2022/12/13 12:01:57;;;;;;;;;;;;;;;-2.21;74.39;97977.04;103336;1303;126858;-70
2022/12/13 12:04:42;;;;;;;;;;;;;;;-2.22;74.26;97978.04;103406;1301;25456;-70
2022/12/13 12:07:12;;;;;;;;;;;;;;;-2.18;74.61;97977.12;103605;1309;124489;-70
2022/12/13 12:09:41;;;;;;;;;;;;;;;-2.10;74.76;97978.34;103402;1288;25238;-70
2022/12/13 12:12:30;;;;;;;;;;;;;;;-2.09;74.36;97975.73;104862;1285;25227;-70
2022/12/13 12:15:11;;;;;;;;;;;;;;;-2.08;74.12;97973.14;104062;1285;125442;-70
2022/12/13 12:17:38;;;;;;;;;;;;;;;-2.01;74.33;97972.16;103877;1312;24248;-70
2022/12/13 12:20:05;;;;;;;;;;;;;;;-1.90;74.38;97972.64;104575;1289;124136;-71
2022/12/13 12:22:39;;;;;;;;;;;;;;;-1.90;73.47;97973.67;103539;1288;23896;-70
2022/12/13 12:25:06;;;;;;;;;;;;;;;-1.91;73.93;97974.35;103736;1313;123993;-70
2022/12/13 12:27:39;;;;;;;;;;;;;;;-1.85;74.12;97971.72;103627;1305;22485;-70
2022/12/13 12:30:14;;;;;;;;;;;;;;;-1.81;74.45;97973.05;103809;1294;22913;-70
2022/12/13 12:33:00;;;;;;;;;;;;;;;-1.84;73.57;97977.34;103975;1295;123739;-70
2022/12/13 12:35:30;;;;;;;;;;;;;;;-1.89;74.04;97978.45;103983;1301;22480;-70
2022/12/13 12:37:56;;;;;;;;;;;;;;;-1.86;74.17;97979.63;104740;1291;123685;-70
2022/12/13 12:40:46;;;;;;;;;;;;;;;-1.81;74.42;97981.05;104450;1296;22465;-70
2022/12/13 12:43:24;;;;;;;;;;;;;;;-1.85;74.08;97978.86;103592;1309;123969;-70